sensor_id;sensor_type;location;lat;lon;timestamp;temperature;humidity
42365;DHT22;28498;54.400;18.566;2022-07-29T00:02:27;12.10;99.90
42365;DHT22;28498;54.400;18.566;2022-07-29T00:04:54;12.10;99.90
42365;DHT22;28498;54.400;18.566;2022-07-29T00:07:21;12.00;99.90
42365;DHT22;28498;54.400;18.566;2022-07-29T00:09:47;12.00;99.90
42365;DHT22;28498;54.400;18.566;2022-07-29T00:12:20;11.90;99.90
42365;DHT22;28498;54.400;18.566;2022-07-29T00:14:55;11.90;99.90
42365;DHT22;28498;54.400;18.566;2022-07-29T00:17:23;11.90;99.90
42365;DHT22;28498;54.400;18.566;2022-07-29T00:19:50;11.90;99.90
42365;DHT22;28498;54.400;18.566;2022-07-29T00:22:17;11.90;99.90
42365;DHT22;28498;54.400;18.566;2022-07-29T00:24:44;11.90;99.90
42365;DHT22;28498;54.400;18.566;2022-07-29T00:27:11;11.90;99.90
42365;DHT22;28498;54.400;18.566;2022-07-29T00:29:38;11.80;99.90
42365;DHT22;28498;54.400;18.566;2022-07-29T00:32:05;11.80;99.90
42365;DHT22;28498;54.400;18.566;2022-07-29T00:34:32;11.80;99.90
42365;DHT22;28498;54.400;18.566;2022-07-29T00:37:17;11.70;99.90
42365;DHT22;28498;54.400;18.566;2022-07-29T00:39:44;11.70;99.90
42365;DHT22;28498;54.400;18.566;2022-07-29T00:42:11;11.70;99.90
42365;DHT22;28498;54.400;18.566;2022-07-29T00:44:39;11.60;99.90
42365;DHT22;28498;54.400;18.566;2022-07-29T00:47:07;11.60;99.90
42365;DHT22;28498;54.400;18.566;2022-07-29T00:49:35;11.60;99.90
42365;DHT22;28498;54.400;18.566;2022-07-29T00:52:04;11.60;99.90
42365;DHT22;28498;54.400;18.566;2022-07-29T00:54:33;11.50;99.90
42365;DHT22;28498;54.400;18.566;2022-07-29T00:57:00;11.50;99.90
42365;DHT22;28498;54.400;18.566;2022-07-29T00:59:27;11.60;99.90
42365;DHT22;28498;54.400;18.566;2022-07-29T01:02:02;11.60;99.90
42365;DHT22;28498;54.400;18.566;2022-07-29T01:04:31;11.70;99.90
42365;DHT22;28498;54.400;18.566;2022-07-29T01:06:59;11.70;99.90
42365;DHT22;28498;54.400;18.566;2022-07-29T01:09:27;11.70;99.90
42365;DHT22;28498;54.400;18.566;2022-07-29T01:12:23;11.50;99.90
42365;DHT22;28498;54.400;18.566;2022-07-29T01:14:52;11.50;99.90
42365;DHT22;28498;54.400;18.566;2022-07-29T01:20:05;11.40;99.90
42365;DHT22;28498;54.400;18.566;2022-07-29T01:30:44;11.40;99.90
42365;DHT22;28498;54.400;18.566;2022-07-29T01:33:15;11.40;99.90
42365;DHT22;28498;54.400;18.566;2022-07-29T01:36:09;11.30;99.90
42365;DHT22;28498;54.400;18.566;2022-07-29T01:38:39;11.20;99.90
42365;DHT22;28498;54.400;18.566;2022-07-29T01:41:19;11.50;99.90
42365;DHT22;28498;54.400;18.566;2022-07-29T01:43:53;11.60;99.90
42365;DHT22;28498;54.400;18.566;2022-07-29T01:46:32;11.70;99.90
42365;DHT22;28498;54.400;18.566;2022-07-29T01:49:10;11.60;99.90
42365;DHT22;28498;54.400;18.566;2022-07-29T01:51:49;11.60;99.90
42365;DHT22;28498;54.400;18.566;2022-07-29T01:54:21;11.50;99.90
42365;DHT22;28498;54.400;18.566;2022-07-29T01:56:53;11.60;99.90
42365;DHT22;28498;54.400;18.566;2022-07-29T01:59:23;11.60;99.90
42365;DHT22;28498;54.400;18.566;2022-07-29T02:01:53;11.60;99.90
42365;DHT22;28498;54.400;18.566;2022-07-29T02:04:21;11.60;99.90
42365;DHT22;28498;54.400;18.566;2022-07-29T02:07:00;11.60;99.90
42365;DHT22;28498;54.400;18.566;2022-07-29T02:09:28;11.60;99.90
42365;DHT22;28498;54.400;18.566;2022-07-29T02:11:56;11.50;99.90
42365;DHT22;28498;54.400;18.566;2022-07-29T02:14:24;11.50;99.90
42365;DHT22;28498;54.400;18.566;2022-07-29T02:16:55;11.50;99.90
42365;DHT22;28498;54.400;18.566;2022-07-29T02:19:26;11.40;99.90
42365;DHT22;28498;54.400;18.566;2022-07-29T02:21:54;11.40;99.90
42365;DHT22;28498;54.400;18.566;2022-07-29T02:24:24;11.30;99.90
42365;DHT22;28498;54.400;18.566;2022-07-29T02:26:53;11.30;99.90
42365;DHT22;28498;54.400;18.566;2022-07-29T02:29:25;11.40;99.90
42365;DHT22;28498;54.400;18.566;2022-07-29T02:31:52;11.40;99.90
42365;DHT22;28498;54.400;18.566;2022-07-29T02:34:20;11.40;99.90
42365;DHT22;28498;54.400;18.566;2022-07-29T02:36:48;11.30;99.90
42365;DHT22;28498;54.400;18.566;2022-07-29T02:39:17;11.30;99.90
42365;DHT22;28498;54.400;18.566;2022-07-29T02:41:47;11.20;99.90
42365;DHT22;28498;54.400;18.566;2022-07-29T02:44:17;11.20;99.90
42365;DHT22;28498;54.400;18.566;2022-07-29T02:47:19;11.20;99.90
42365;DHT22;28498;54.400;18.566;2022-07-29T02:49:57;11.20;99.90
42365;DHT22;28498;54.400;18.566;2022-07-29T02:52:39;11.30;99.90
42365;DHT22;28498;54.400;18.566;2022-07-29T02:55:15;11.30;99.90
42365;DHT22;28498;54.400;18.566;2022-07-29T02:57:46;11.30;99.90
42365;DHT22;28498;54.400;18.566;2022-07-29T03:00:21;11.40;99.90
42365;DHT22;28498;54.400;18.566;2022-07-29T03:02:52;11.50;99.90
42365;DHT22;28498;54.400;18.566;2022-07-29T03:05:20;11.60;99.90
42365;DHT22;28498;54.400;18.566;2022-07-29T03:08:00;11.60;99.90
42365;DHT22;28498;54.400;18.566;2022-07-29T03:10:28;11.60;99.90
42365;DHT22;28498;54.400;18.566;2022-07-29T03:12:55;11.50;99.90
42365;DHT22;28498;54.400;18.566;2022-07-29T03:15:25;11.60;99.90
42365;DHT22;28498;54.400;18.566;2022-07-29T03:17:53;11.60;99.90
42365;DHT22;28498;54.400;18.566;2022-07-29T03:20:20;11.60;99.90
42365;DHT22;28498;54.400;18.566;2022-07-29T03:22:48;11.60;99.90
42365;DHT22;28498;54.400;18.566;2022-07-29T03:25:18;11.70;99.90
42365;DHT22;28498;54.400;18.566;2022-07-29T03:27:46;11.70;99.90
42365;DHT22;28498;54.400;18.566;2022-07-29T03:30:14;11.80;99.90
42365;DHT22;28498;54.400;18.566;2022-07-29T03:32:48;11.80;99.90
42365;DHT22;28498;54.400;18.566;2022-07-29T03:35:21;11.90;99.90
42365;DHT22;28498;54.400;18.566;2022-07-29T03:37:48;11.90;99.90
42365;DHT22;28498;54.400;18.566;2022-07-29T03:40:30;12.00;99.90
42365;DHT22;28498;54.400;18.566;2022-07-29T03:42:59;12.00;99.90
42365;DHT22;28498;54.400;18.566;2022-07-29T03:45:29;12.00;99.90
42365;DHT22;28498;54.400;18.566;2022-07-29T03:48:00;12.10;99.90
42365;DHT22;28498;54.400;18.566;2022-07-29T03:50:29;12.50;99.90
42365;DHT22;28498;54.400;18.566;2022-07-29T03:52:57;12.70;99.90
42365;DHT22;28498;54.400;18.566;2022-07-29T03:55:25;12.90;99.90
42365;DHT22;28498;54.400;18.566;2022-07-29T03:57:53;12.90;99.90
42365;DHT22;28498;54.400;18.566;2022-07-29T04:00:20;13.00;99.90
42365;DHT22;28498;54.400;18.566;2022-07-29T04:02:48;13.00;99.90
42365;DHT22;28498;54.400;18.566;2022-07-29T04:05:16;13.10;99.90
42365;DHT22;28498;54.400;18.566;2022-07-29T04:07:45;13.60;99.90
42365;DHT22;28498;54.400;18.566;2022-07-29T04:10:13;13.90;99.90
42365;DHT22;28498;54.400;18.566;2022-07-29T04:12:42;14.40;99.90
42365;DHT22;28498;54.400;18.566;2022-07-29T04:15:10;14.90;99.90
42365;DHT22;28498;54.400;18.566;2022-07-29T04:17:37;14.90;99.90
42365;DHT22;28498;54.400;18.566;2022-07-29T04:20:05;15.20;99.90
42365;DHT22;28498;54.400;18.566;2022-07-29T04:22:32;15.80;99.90
42365;DHT22;28498;54.400;18.566;2022-07-29T04:24:58;16.10;99.90
42365;DHT22;28498;54.400;18.566;2022-07-29T04:27:30;16.80;99.90
42365;DHT22;28498;54.400;18.566;2022-07-29T04:29:56;17.20;99.90
42365;DHT22;28498;54.400;18.566;2022-07-29T04:32:24;17.90;93.90
42365;DHT22;28498;54.400;18.566;2022-07-29T04:34:51;18.10;82.40
42365;DHT22;28498;54.400;18.566;2022-07-29T04:37:19;18.10;79.30
42365;DHT22;28498;54.400;18.566;2022-07-29T04:39:46;18.00;90.30
42365;DHT22;28498;54.400;18.566;2022-07-29T04:42:13;17.90;91.30
42365;DHT22;28498;54.400;18.566;2022-07-29T04:44:40;17.70;92.10
42365;DHT22;28498;54.400;18.566;2022-07-29T04:47:08;17.60;96.30
42365;DHT22;28498;54.400;18.566;2022-07-29T04:49:39;17.40;99.30
42365;DHT22;28498;54.400;18.566;2022-07-29T04:52:06;16.90;99.90
42365;DHT22;28498;54.400;18.566;2022-07-29T04:54:33;16.70;99.90
42365;DHT22;28498;54.400;18.566;2022-07-29T04:57:00;16.40;99.90
42365;DHT22;28498;54.400;18.566;2022-07-29T04:59:27;16.40;99.90
42365;DHT22;28498;54.400;18.566;2022-07-29T05:01:54;16.40;99.90
42365;DHT22;28498;54.400;18.566;2022-07-29T05:04:21;16.60;99.90
42365;DHT22;28498;54.400;18.566;2022-07-29T05:06:48;16.80;99.90
42365;DHT22;28498;54.400;18.566;2022-07-29T05:09:15;16.90;99.90
42365;DHT22;28498;54.400;18.566;2022-07-29T05:11:42;16.90;99.90
42365;DHT22;28498;54.400;18.566;2022-07-29T05:14:09;17.00;99.90
42365;DHT22;28498;54.400;18.566;2022-07-29T05:16:36;17.20;99.90
42365;DHT22;28498;54.400;18.566;2022-07-29T05:19:02;17.20;99.90
42365;DHT22;28498;54.400;18.566;2022-07-29T05:21:29;17.30;99.90
42365;DHT22;28498;54.400;18.566;2022-07-29T05:23:56;17.50;99.90
42365;DHT22;28498;54.400;18.566;2022-07-29T05:26:23;17.70;99.90
42365;DHT22;28498;54.400;18.566;2022-07-29T05:28:50;17.90;99.90
42365;DHT22;28498;54.400;18.566;2022-07-29T05:31:17;17.90;99.90
42365;DHT22;28498;54.400;18.566;2022-07-29T05:33:44;17.90;99.90
42365;DHT22;28498;54.400;18.566;2022-07-29T05:36:11;18.10;99.90
42365;DHT22;28498;54.400;18.566;2022-07-29T05:38:38;18.40;99.90
42365;DHT22;28498;54.400;18.566;2022-07-29T05:41:05;18.60;99.90
42365;DHT22;28498;54.400;18.566;2022-07-29T05:43:32;18.90;97.00
42365;DHT22;28498;54.400;18.566;2022-07-29T05:45:59;19.10;91.50
42365;DHT22;28498;54.400;18.566;2022-07-29T05:48:26;18.90;76.20
42365;DHT22;28498;54.400;18.566;2022-07-29T05:50:53;18.70;73.30
42365;DHT22;28498;54.400;18.566;2022-07-29T05:53:20;18.70;84.50
42365;DHT22;28498;54.400;18.566;2022-07-29T05:55:48;18.60;89.20
42365;DHT22;28498;54.400;18.566;2022-07-29T05:58:15;18.60;61.90
42365;DHT22;28498;54.400;18.566;2022-07-29T06:00:42;18.90;68.50
42365;DHT22;28498;54.400;18.566;2022-07-29T06:03:09;18.80;57.60
42365;DHT22;28498;54.400;18.566;2022-07-29T06:05:36;18.70;49.30
42365;DHT22;28498;54.400;18.566;2022-07-29T06:08:03;18.90;49.00
42365;DHT22;28498;54.400;18.566;2022-07-29T06:10:32;18.90;51.50
42365;DHT22;28498;54.400;18.566;2022-07-29T06:13:00;19.00;35.10
42365;DHT22;28498;54.400;18.566;2022-07-29T06:15:27;19.10;47.20
42365;DHT22;28498;54.400;18.566;2022-07-29T06:17:54;19.10;29.40
42365;DHT22;28498;54.400;18.566;2022-07-29T06:20:30;19.30;15.50
42365;DHT22;28498;54.400;18.566;2022-07-29T06:22:59;19.40;1.00
42365;DHT22;28498;54.400;18.566;2022-07-29T06:25:27;19.40;3.70
42365;DHT22;28498;54.400;18.566;2022-07-29T06:27:57;19.50;1.00
42365;DHT22;28498;54.400;18.566;2022-07-29T06:30:24;19.60;1.00
42365;DHT22;28498;54.400;18.566;2022-07-29T06:32:52;19.70;1.00
42365;DHT22;28498;54.400;18.566;2022-07-29T06:35:19;20.00;1.00
42365;DHT22;28498;54.400;18.566;2022-07-29T06:41:53;19.80;1.00
42365;DHT22;28498;54.400;18.566;2022-07-29T06:44:20;20.00;99.90
42365;DHT22;28498;54.400;18.566;2022-07-29T06:46:47;20.30;99.90
42365;DHT22;28498;54.400;18.566;2022-07-29T06:49:16;20.50;66.30
42365;DHT22;28498;54.400;18.566;2022-07-29T06:51:43;20.60;99.90
42365;DHT22;28498;54.400;18.566;2022-07-29T06:54:10;20.50;46.30
42365;DHT22;28498;54.400;18.566;2022-07-29T06:56:37;20.40;99.90
42365;DHT22;28498;54.400;18.566;2022-07-29T06:59:07;20.30;99.90
42365;DHT22;28498;54.400;18.566;2022-07-29T07:01:39;20.10;99.90
42365;DHT22;28498;54.400;18.566;2022-07-29T07:04:07;20.60;1.00
42365;DHT22;28498;54.400;18.566;2022-07-29T07:06:35;20.80;99.90
42365;DHT22;28498;54.400;18.566;2022-07-29T07:09:03;20.90;99.90
42365;DHT22;28498;54.400;18.566;2022-07-29T07:11:30;20.60;99.90
42365;DHT22;28498;54.400;18.566;2022-07-29T07:13:57;20.70;99.90
42365;DHT22;28498;54.400;18.566;2022-07-29T07:16:29;20.90;1.00
42365;DHT22;28498;54.400;18.566;2022-07-29T07:18:56;21.00;99.90
42365;DHT22;28498;54.400;18.566;2022-07-29T07:21:23;21.00;99.90
42365;DHT22;28498;54.400;18.566;2022-07-29T07:23:50;21.10;99.90
42365;DHT22;28498;54.400;18.566;2022-07-29T07:26:17;21.10;99.90
42365;DHT22;28498;54.400;18.566;2022-07-29T07:28:44;21.20;99.90
42365;DHT22;28498;54.400;18.566;2022-07-29T07:31:11;21.30;1.00
42365;DHT22;28498;54.400;18.566;2022-07-29T07:33:38;21.00;99.90
42365;DHT22;28498;54.400;18.566;2022-07-29T07:36:05;20.90;1.00
42365;DHT22;28498;54.400;18.566;2022-07-29T07:38:32;21.00;99.90
42365;DHT22;28498;54.400;18.566;2022-07-29T07:41:00;20.80;1.00
42365;DHT22;28498;54.400;18.566;2022-07-29T07:43:27;20.70;99.90
42365;DHT22;28498;54.400;18.566;2022-07-29T07:45:54;20.80;99.90
42365;DHT22;28498;54.400;18.566;2022-07-29T07:48:21;21.20;99.90
42365;DHT22;28498;54.400;18.566;2022-07-29T07:50:48;21.20;73.70
42365;DHT22;28498;54.400;18.566;2022-07-29T07:53:16;21.00;99.90
42365;DHT22;28498;54.400;18.566;2022-07-29T07:55:43;21.00;99.90
42365;DHT22;28498;54.400;18.566;2022-07-29T07:58:30;20.90;99.90
42365;DHT22;28498;54.400;18.566;2022-07-29T08:00:57;21.10;99.90
42365;DHT22;28498;54.400;18.566;2022-07-29T08:03:24;20.90;99.90
42365;DHT22;28498;54.400;18.566;2022-07-29T08:05:51;20.50;99.90
42365;DHT22;28498;54.400;18.566;2022-07-29T08:08:18;20.30;99.90
42365;DHT22;28498;54.400;18.566;2022-07-29T08:10:46;20.20;24.90
42365;DHT22;28498;54.400;18.566;2022-07-29T08:13:23;20.20;99.90
42365;DHT22;28498;54.400;18.566;2022-07-29T08:15:52;20.00;99.90
42365;DHT22;28498;54.400;18.566;2022-07-29T08:18:30;19.80;66.40
42365;DHT22;28498;54.400;18.566;2022-07-29T08:20:57;19.60;1.00
42365;DHT22;28498;54.400;18.566;2022-07-29T08:23:24;19.70;99.90
42365;DHT22;28498;54.400;18.566;2022-07-29T08:26:13;20.10;1.00
42365;DHT22;28498;54.400;18.566;2022-07-29T08:28:41;20.20;52.90
42365;DHT22;28498;54.400;18.566;2022-07-29T08:31:12;20.30;1.00
42365;DHT22;28498;54.400;18.566;2022-07-29T08:33:39;20.30;99.90
42365;DHT22;28498;54.400;18.566;2022-07-29T08:36:06;20.50;99.90
42365;DHT22;28498;54.400;18.566;2022-07-29T08:38:33;20.70;99.90
42365;DHT22;28498;54.400;18.566;2022-07-29T08:41:01;20.70;99.90
42365;DHT22;28498;54.400;18.566;2022-07-29T08:43:28;20.80;99.90
42365;DHT22;28498;54.400;18.566;2022-07-29T08:45:55;20.80;1.00
42365;DHT22;28498;54.400;18.566;2022-07-29T08:48:23;20.90;1.00
42365;DHT22;28498;54.400;18.566;2022-07-29T08:50:54;21.00;99.90
42365;DHT22;28498;54.400;18.566;2022-07-29T08:53:24;20.80;99.90
42365;DHT22;28498;54.400;18.566;2022-07-29T08:55:53;20.80;99.90
42365;DHT22;28498;54.400;18.566;2022-07-29T08:58:20;20.60;1.00
42365;DHT22;28498;54.400;18.566;2022-07-29T09:00:53;20.60;99.90
42365;DHT22;28498;54.400;18.566;2022-07-29T09:03:24;20.80;99.90
42365;DHT22;28498;54.400;18.566;2022-07-29T09:05:51;20.60;1.00
42365;DHT22;28498;54.400;18.566;2022-07-29T09:08:19;20.30;1.00
42365;DHT22;28498;54.400;18.566;2022-07-29T09:10:47;20.40;99.90
42365;DHT22;28498;54.400;18.566;2022-07-29T09:13:14;20.40;1.00
42365;DHT22;28498;54.400;18.566;2022-07-29T09:15:41;20.50;10.60
42365;DHT22;28498;54.400;18.566;2022-07-29T09:18:08;20.60;90.20
42365;DHT22;28498;54.400;18.566;2022-07-29T09:20:55;20.60;99.90
42365;DHT22;28498;54.400;18.566;2022-07-29T09:23:40;20.60;99.90
42365;DHT22;28498;54.400;18.566;2022-07-29T09:26:09;20.80;1.00
42365;DHT22;28498;54.400;18.566;2022-07-29T09:28:41;20.90;99.90
42365;DHT22;28498;54.400;18.566;2022-07-29T09:31:08;20.70;99.90
42365;DHT22;28498;54.400;18.566;2022-07-29T09:33:35;20.40;99.90
42365;DHT22;28498;54.400;18.566;2022-07-29T09:36:08;20.30;99.90
42365;DHT22;28498;54.400;18.566;2022-07-29T09:38:35;20.40;99.90
42365;DHT22;28498;54.400;18.566;2022-07-29T09:41:04;20.50;99.90
42365;DHT22;28498;54.400;18.566;2022-07-29T09:43:33;20.60;99.90
42365;DHT22;28498;54.400;18.566;2022-07-29T09:46:13;20.60;1.00
42365;DHT22;28498;54.400;18.566;2022-07-29T09:48:41;20.50;1.00
42365;DHT22;28498;54.400;18.566;2022-07-29T09:51:21;20.50;1.00
42365;DHT22;28498;54.400;18.566;2022-07-29T09:54:22;20.30;1.00
42365;DHT22;28498;54.400;18.566;2022-07-29T09:56:50;20.60;99.90
42365;DHT22;28498;54.400;18.566;2022-07-29T09:59:17;20.50;99.90
42365;DHT22;28498;54.400;18.566;2022-07-29T10:01:44;20.40;99.90
42365;DHT22;28498;54.400;18.566;2022-07-29T10:04:11;20.70;99.90
42365;DHT22;28498;54.400;18.566;2022-07-29T10:06:58;20.70;99.90
42365;DHT22;28498;54.400;18.566;2022-07-29T10:09:31;20.70;99.90
42365;DHT22;28498;54.400;18.566;2022-07-29T10:12:12;20.70;99.90
42365;DHT22;28498;54.400;18.566;2022-07-29T10:14:42;20.90;99.90
42365;DHT22;28498;54.400;18.566;2022-07-29T10:17:10;20.80;99.90
42365;DHT22;28498;54.400;18.566;2022-07-29T10:19:38;20.80;70.60
42365;DHT22;28498;54.400;18.566;2022-07-29T10:22:07;20.80;14.10
42365;DHT22;28498;54.400;18.566;2022-07-29T10:24:36;21.10;37.10
42365;DHT22;28498;54.400;18.566;2022-07-29T10:27:05;21.00;99.90
42365;DHT22;28498;54.400;18.566;2022-07-29T10:29:32;20.90;99.90
42365;DHT22;28498;54.400;18.566;2022-07-29T10:32:26;20.90;99.90
42365;DHT22;28498;54.400;18.566;2022-07-29T10:43:46;20.70;93.50
42365;DHT22;28498;54.400;18.566;2022-07-29T10:46:18;20.90;42.20
42365;DHT22;28498;54.400;18.566;2022-07-29T10:49:08;20.90;33.20
42365;DHT22;28498;54.400;18.566;2022-07-29T10:57:25;21.20;4.30
42365;DHT22;28498;54.400;18.566;2022-07-29T11:02:44;21.30;1.00
42365;DHT22;28498;54.400;18.566;2022-07-29T11:05:12;21.20;1.00
42365;DHT22;28498;54.400;18.566;2022-07-29T11:10:53;20.90;3.50
42365;DHT22;28498;54.400;18.566;2022-07-29T11:13:47;21.10;1.00
42365;DHT22;28498;54.400;18.566;2022-07-29T11:16:19;21.30;1.00
42365;DHT22;28498;54.400;18.566;2022-07-29T11:21:44;21.50;1.00
42365;DHT22;28498;54.400;18.566;2022-07-29T11:24:27;21.40;1.00
42365;DHT22;28498;54.400;18.566;2022-07-29T11:29:46;21.10;1.00
42365;DHT22;28498;54.400;18.566;2022-07-29T11:32:16;21.20;1.00
42365;DHT22;28498;54.400;18.566;2022-07-29T11:35:22;21.20;1.00
42365;DHT22;28498;54.400;18.566;2022-07-29T11:38:26;21.20;1.00
42365;DHT22;28498;54.400;18.566;2022-07-29T11:41:25;21.30;1.00
42365;DHT22;28498;54.400;18.566;2022-07-29T11:43:54;21.20;1.00
42365;DHT22;28498;54.400;18.566;2022-07-29T11:46:48;21.00;1.00
42365;DHT22;28498;54.400;18.566;2022-07-29T11:49:34;21.10;1.00
42365;DHT22;28498;54.400;18.566;2022-07-29T11:52:02;20.80;1.00
42365;DHT22;28498;54.400;18.566;2022-07-29T11:54:32;21.00;1.00
42365;DHT22;28498;54.400;18.566;2022-07-29T11:57:20;21.10;1.00
42365;DHT22;28498;54.400;18.566;2022-07-29T11:59:47;20.80;1.00
42365;DHT22;28498;54.400;18.566;2022-07-29T12:02:15;20.90;2.50
42365;DHT22;28498;54.400;18.566;2022-07-29T12:05:02;21.10;1.00
42365;DHT22;28498;54.400;18.566;2022-07-29T12:07:37;21.20;1.00
42365;DHT22;28498;54.400;18.566;2022-07-29T12:10:05;21.20;1.00
42365;DHT22;28498;54.400;18.566;2022-07-29T12:12:37;21.20;1.00
42365;DHT22;28498;54.400;18.566;2022-07-29T12:15:13;21.30;1.90
42365;DHT22;28498;54.400;18.566;2022-07-29T12:17:40;21.10;1.00
42365;DHT22;28498;54.400;18.566;2022-07-29T12:20:08;20.80;1.00
42365;DHT22;28498;54.400;18.566;2022-07-29T12:22:39;20.60;1.00
42365;DHT22;28498;54.400;18.566;2022-07-29T12:25:11;20.70;1.00
42365;DHT22;28498;54.400;18.566;2022-07-29T12:28:04;20.50;1.00
42365;DHT22;28498;54.400;18.566;2022-07-29T12:39:30;21.00;1.00
42365;DHT22;28498;54.400;18.566;2022-07-29T12:41:58;21.20;1.00
42365;DHT22;28498;54.400;18.566;2022-07-29T12:44:47;21.30;6.50
42365;DHT22;28498;54.400;18.566;2022-07-29T12:47:15;21.30;1.00
42365;DHT22;28498;54.400;18.566;2022-07-29T12:49:42;21.50;9.10
42365;DHT22;28498;54.400;18.566;2022-07-29T12:54:55;21.60;9.00
42365;DHT22;28498;54.400;18.566;2022-07-29T12:57:22;21.40;17.60
42365;DHT22;28498;54.400;18.566;2022-07-29T13:02:27;21.20;33.90
42365;DHT22;28498;54.400;18.566;2022-07-29T13:04:56;21.00;38.20
42365;DHT22;28498;54.400;18.566;2022-07-29T13:07:31;20.70;43.30
42365;DHT22;28498;54.400;18.566;2022-07-29T13:10:20;20.60;85.70
42365;DHT22;28498;54.400;18.566;2022-07-29T13:13:06;20.90;99.90
42365;DHT22;28498;54.400;18.566;2022-07-29T13:15:39;20.80;99.90
42365;DHT22;28498;54.400;18.566;2022-07-29T13:18:31;20.80;99.90
42365;DHT22;28498;54.400;18.566;2022-07-29T13:21:19;21.00;99.90
42365;DHT22;28498;54.400;18.566;2022-07-29T13:23:46;21.20;99.90
42365;DHT22;28498;54.400;18.566;2022-07-29T13:26:13;20.80;99.90
42365;DHT22;28498;54.400;18.566;2022-07-29T13:28:39;20.60;99.90
42365;DHT22;28498;54.400;18.566;2022-07-29T13:31:10;20.50;99.90
42365;DHT22;28498;54.400;18.566;2022-07-29T13:33:37;20.40;27.60
42365;DHT22;28498;54.400;18.566;2022-07-29T13:36:04;20.50;99.90
42365;DHT22;28498;54.400;18.566;2022-07-29T13:38:31;20.60;99.90
42365;DHT22;28498;54.400;18.566;2022-07-29T13:40:58;20.70;99.90
42365;DHT22;28498;54.400;18.566;2022-07-29T13:43:25;20.70;99.90
42365;DHT22;28498;54.400;18.566;2022-07-29T13:49:34;20.60;99.90
42365;DHT22;28498;54.400;18.566;2022-07-29T13:52:01;20.70;99.90
42365;DHT22;28498;54.400;18.566;2022-07-29T13:54:28;21.10;99.90
42365;DHT22;28498;54.400;18.566;2022-07-29T13:56:55;21.70;22.60
42365;DHT22;28498;54.400;18.566;2022-07-29T13:59:22;22.20;1.00
42365;DHT22;28498;54.400;18.566;2022-07-29T14:01:49;22.40;99.90
42365;DHT22;28498;54.400;18.566;2022-07-29T14:04:16;22.50;99.90
42365;DHT22;28498;54.400;18.566;2022-07-29T14:06:43;22.50;99.90
42365;DHT22;28498;54.400;18.566;2022-07-29T14:09:10;22.80;99.90
42365;DHT22;28498;54.400;18.566;2022-07-29T14:11:37;23.40;99.90
42365;DHT22;28498;54.400;18.566;2022-07-29T14:14:05;23.40;99.90
42365;DHT22;28498;54.400;18.566;2022-07-29T14:16:32;23.70;99.90
42365;DHT22;28498;54.400;18.566;2022-07-29T14:18:59;23.60;99.90
42365;DHT22;28498;54.400;18.566;2022-07-29T14:21:26;24.50;99.90
42365;DHT22;28498;54.400;18.566;2022-07-29T14:23:54;24.60;99.90
42365;DHT22;28498;54.400;18.566;2022-07-29T14:26:22;24.30;99.90
42365;DHT22;28498;54.400;18.566;2022-07-29T14:28:50;24.10;99.90
42365;DHT22;28498;54.400;18.566;2022-07-29T14:31:17;24.60;99.90
42365;DHT22;28498;54.400;18.566;2022-07-29T14:33:44;24.70;99.90
42365;DHT22;28498;54.400;18.566;2022-07-29T14:36:15;24.10;99.90
42365;DHT22;28498;54.400;18.566;2022-07-29T14:38:42;23.50;99.90
42365;DHT22;28498;54.400;18.566;2022-07-29T14:41:09;23.10;99.90
42365;DHT22;28498;54.400;18.566;2022-07-29T14:43:36;22.80;99.90
42365;DHT22;28498;54.400;18.566;2022-07-29T14:46:03;23.40;99.90
42365;DHT22;28498;54.400;18.566;2022-07-29T14:48:34;23.50;99.90
42365;DHT22;28498;54.400;18.566;2022-07-29T14:51:01;23.40;99.90
42365;DHT22;28498;54.400;18.566;2022-07-29T14:53:31;23.50;99.90
42365;DHT22;28498;54.400;18.566;2022-07-29T14:55:58;23.60;99.90
42365;DHT22;28498;54.400;18.566;2022-07-29T14:58:45;23.80;99.90
42365;DHT22;28498;54.400;18.566;2022-07-29T15:01:17;23.60;99.90
42365;DHT22;28498;54.400;18.566;2022-07-29T15:03:44;23.50;99.90
42365;DHT22;28498;54.400;18.566;2022-07-29T15:06:11;23.50;98.40
42365;DHT22;28498;54.400;18.566;2022-07-29T15:08:38;23.10;99.90
42365;DHT22;28498;54.400;18.566;2022-07-29T15:11:05;23.30;99.90
42365;DHT22;28498;54.400;18.566;2022-07-29T15:13:33;22.90;92.90
42365;DHT22;28498;54.400;18.566;2022-07-29T15:16:00;22.80;95.00
42365;DHT22;28498;54.400;18.566;2022-07-29T15:18:27;22.90;99.90
42365;DHT22;28498;54.400;18.566;2022-07-29T15:20:54;22.70;99.90
42365;DHT22;28498;54.400;18.566;2022-07-29T15:23:21;22.80;99.90
42365;DHT22;28498;54.400;18.566;2022-07-29T15:25:48;23.00;98.10
42365;DHT22;28498;54.400;18.566;2022-07-29T15:28:15;22.90;99.90
42365;DHT22;28498;54.400;18.566;2022-07-29T15:30:42;22.70;99.60
42365;DHT22;28498;54.400;18.566;2022-07-29T15:33:09;22.50;99.90
42365;DHT22;28498;54.400;18.566;2022-07-29T15:35:37;22.80;99.90
42365;DHT22;28498;54.400;18.566;2022-07-29T15:38:06;23.00;98.20
42365;DHT22;28498;54.400;18.566;2022-07-29T15:40:33;23.10;99.90
42365;DHT22;28498;54.400;18.566;2022-07-29T15:43:04;23.80;99.20
42365;DHT22;28498;54.400;18.566;2022-07-29T15:45:37;23.40;69.40
42365;DHT22;28498;54.400;18.566;2022-07-29T15:48:06;23.60;66.10
42365;DHT22;28498;54.400;18.566;2022-07-29T15:50:34;23.20;58.90
42365;DHT22;28498;54.400;18.566;2022-07-29T15:53:01;23.10;54.70
42365;DHT22;28498;54.400;18.566;2022-07-29T15:55:28;23.70;65.10
42365;DHT22;28498;54.400;18.566;2022-07-29T15:57:55;23.70;59.40
42365;DHT22;28498;54.400;18.566;2022-07-29T16:00:26;23.90;56.30
42365;DHT22;28498;54.400;18.566;2022-07-29T16:02:53;23.10;58.90
42365;DHT22;28498;54.400;18.566;2022-07-29T16:05:20;23.30;81.10
42365;DHT22;28498;54.400;18.566;2022-07-29T16:07:47;23.10;95.40
42365;DHT22;28498;54.400;18.566;2022-07-29T16:10:14;23.00;96.70
42365;DHT22;28498;54.400;18.566;2022-07-29T16:12:41;22.70;89.50
42365;DHT22;28498;54.400;18.566;2022-07-29T16:15:08;22.50;79.40
42365;DHT22;28498;54.400;18.566;2022-07-29T16:17:36;22.00;80.70
42365;DHT22;28498;54.400;18.566;2022-07-29T16:20:04;21.20;99.90
42365;DHT22;28498;54.400;18.566;2022-07-29T16:22:32;20.80;99.90
42365;DHT22;28498;54.400;18.566;2022-07-29T16:24:59;20.60;99.90
42365;DHT22;28498;54.400;18.566;2022-07-29T16:27:26;20.50;99.90
42365;DHT22;28498;54.400;18.566;2022-07-29T16:30:05;20.40;99.90
42365;DHT22;28498;54.400;18.566;2022-07-29T16:32:32;20.20;1.00
42365;DHT22;28498;54.400;18.566;2022-07-29T16:34:59;20.10;80.30
42365;DHT22;28498;54.400;18.566;2022-07-29T16:37:28;20.00;99.90